Camden, NJ

8:44 PM EDT on May 28, 2015 (GMT -0400)
Dickinson Narrows / Southwark | | Change Station
CLOSE
Current Station
Personal Weather Station
Location: Philadelphia, PA
Elevation: 33 ft
Nearby Weather Stations

Elev 33 ft 39.93 °N, 75.15 °W | Updated 11 seconds ago

Mostly Cloudy
Mostly Cloudy
81.3 °F
Feels Like 85 °F
N
0.0
Wind Variable Wind from SW
Gusts 1.0 mph

Today
High -- | Low -- °F
--% Chance of Precip.
Yesterday
High -- | Low -- °F
Precip. -- in
5:35 AM 8:19 PM
Waxing Gibbous, 79% visible
Pressure 30.16 in
Visibility 10.0 miles
Clouds Few 6000 ft
Mostly Cloudy 25000 ft
Heat Index 85 °F
Dew Point 70 °F
Humidity 69%
Rainfall 0.00 in
Snow Depth Not available.
UV 0 out of 12
Pollen 7.40 out of 12
Air Quality Not available.
Flu Activity Sporadic
METAR KPHL 282354Z 23005KT 10SM FEW060 BKN250 28/19 A3016 RMK AO2 SLP213 60000 T02780194 10317 20278 53007

More Conditions Fewer Conditions

Pressure 30.16 in
Visibility 10.0 miles
Clouds Few 6000 ft
Mostly Cloudy 25000 ft
Heat Index 85 °F
Dew Point 70 °F
Humidity 69%
Rainfall 0.00 in
Snow Depth Not available.
UV 0 out of 12
Pollen 7.40 out of 12
Air Quality Not available.
Flu Activity Sporadic
METAR KPHL 282354Z 23005KT 10SM FEW060 BKN250 28/19 A3016 RMK AO2 SLP213 60000 T02780194 10317 20278 53007

More Conditions Fewer Conditions

10-Day Weather Forecast

Almanac

Astronomy

May. 28, 2015 Rise Set
Actual Time
Civil Twilight
Nautical Twilight
Astronomical Twilight
Moon
Length of Visible Light
Length of Day
Tomorrow will be .
, % of the Moon is Illuminated

Today's Extremes

State Highs State Lows

Community

WunderPhotos

Upload Photos

1,825,100 photos uploaded!

WunderBlogs® & News

Nearby

Air Quality

  Air Quality AQ Index Pollutant
Not available.

Snow Depth

Station Depth Elevation

Earthquake Activity

City Distance Mag. Time & Date
Minimum magnitude displayed is 2.5.

Coastal Water Temperatures

Place Temperature

Stations

Nearby Weather Stations

Station Location Temp. Windchill Dew Point Humidity Wind Precip. Elev Updated Type